Thunder radar more information blitzortung!


Radar de pluja more information rain snow radar


Visita la nostra xarxa de llocs de meteo:

Template documentation
and downloads

And another site



No particular awareness of the weather is required.    There are no Weather-warnings

Pagina Historial Weather Underground text

Diari Resum Agost 14, 2017 Unitats:  Imperial    Mètric   Tant
« Previous Dia
SegĂźent Dia »
Diari Setmana Mensual Anual Personalitzada
  Maxima: Minima: Media:
Temperatura: 91.4 °F 62.8 °F 80.6 °F
Punt de rosada: 65.3 °F 49.6 °F 56.7 °F
Humitat: 84 % 29 % 47 %
Wind Speed: 13.8 mph 0 mph 4.3 mph
RĂ fegues de vent: 13.8 mph - -
Vent:- - SSW
Pression baro: 30.1 in 30 in -
Precipitacions: 0 in    
Historical Graphs
 
 
Dades de taula per Agost 14, 2017
Temps Temperatura Punt de rosada Pression baro Vent Wind Speed RĂ fegues de vent Humitat Rainfall Rate (Hourly)
00:01 71.1 °F 60.1 °F 30.1 in WSW 2.3 mph 2.3 mph 68 % 0 in
00:05 65.7 °F 59.7 °F 30 in Calm   1 mph 81 % 0 in
00:06 71.1 °F 60.1 °F 30.1 in Calm     68 % 0 in
00:15 65.3 °F 59.4 °F 30 in WNW 1 mph 2 mph 81 % 0 in
00:25 65.1 °F 59.2 °F 30 in Calm     81 % 0 in
00:35 65.1 °F 59.5 °F 30 in Calm   1 mph 82 % 0 in
00:45 64.9 °F 59 °F 30 in SW 1 mph 2 mph 81 % 0 in
00:55 64.8 °F 59.2 °F 30 in Calm     82 % 0 in
01:05 64.4 °F 58.8 °F 30 in Calm   1 mph 82 % 0 in
01:15 64 °F 58.5 °F 30 in WSW 1 mph 1 mph 82 % 0 in
01:25 63.9 °F 58.3 °F 30 in SW 1 mph 2 mph 82 % 0 in
01:35 63.7 °F 58.1 °F 30 in SW 2 mph 2 mph 82 % 0 in
01:45 63.1 °F 57.9 °F 30 in SW 1 mph 2 mph 83 % 0 in
01:55 63.1 °F 57.9 °F 30 in Calm   2 mph 83 % 0 in
02:05 63 °F 57.7 °F 30 in SW 1 mph 1 mph 83 % 0 in
02:15 63 °F 57.7 °F 30 in SW 1 mph 2 mph 83 % 0 in
02:25 62.8 °F 57.6 °F 30 in SW 1 mph 1 mph 83 % 0 in
02:35 63.1 °F 58.3 °F 30 in Calm   1 mph 84 % 0 in
02:45 64 °F 59.2 °F 30 in Calm     84 % 0 in
02:55 63.9 °F 58.6 °F 30 in WSW 1 mph 2 mph 83 % 0 in
03:05 64.4 °F 58.5 °F 30 in SW 1 mph 2 mph 81 % 0 in
03:15 64.8 °F 58.5 °F 30 in SW 1 mph 3 mph 80 % 0 in
03:25 65.5 °F 59.2 °F 30 in Calm   2 mph 80 % 0 in
03:35 66.2 °F 59.2 °F 30 in WSW 1 mph 2 mph 78 % 0 in
03:45 66.9 °F 59.5 °F 30 in SW 1 mph 2 mph 77 % 0 in
03:55 68.4 °F 60.4 °F 30 in SW 1 mph 2 mph 76 % 0 in
04:05 68.7 °F 60.4 °F 30 in SW 1 mph 2 mph 75 % 0 in
04:15 70.7 °F 62.1 °F 30 in SW 2 mph 2 mph 74 % 0 in
04:25 72.1 °F 61.9 °F 30 in South 2 mph 2 mph 70 % 0 in
04:35 72.9 °F 62.4 °F 30.1 in South 1 mph 2 mph 70 % 0 in
04:45 73.6 °F 62.4 °F 30.1 in SSW 1 mph 4 mph 68 % 0 in
04:55 74.1 °F 63.3 °F 30 in SW 3 mph 3 mph 69 % 0 in
05:05 74.7 °F 63.9 °F 30.1 in SW 2 mph 6 mph 69 % 0 in
05:15 74.7 °F 63.9 °F 30.1 in SW 3 mph 5 mph 69 % 0 in
05:25 75.7 °F 64.4 °F 30 in SW 3 mph 4 mph 68 % 0 in
05:35 76.8 °F 64.6 °F 30 in SW 3 mph 4 mph 66 % 0 in
10:37 77.4 °F 64.2 °F 30 in South 3.5 mph 3.5 mph 64 % 0 in
10:42 78.4 °F 64.8 °F 30 in WSW 4.6 mph 4.6 mph 63 % 0 in
10:47 78.6 °F 64.6 °F 30 in SSW 5.8 mph 5.8 mph 62 % 0 in
10:52 79.3 °F 64.8 °F 30 in SSE 3.5 mph 3.5 mph 61 % 0 in
10:57 79.9 °F 65.1 °F 30 in SW 3.5 mph 3.5 mph 61 % 0 in
11:02 79.9 °F 65.1 °F 30 in SW 4.6 mph 4.6 mph 61 % 0 in
11:07 79.7 °F 64 °F 30 in South 4.9 mph 4.9 mph 59 % 0 in
11:12 80.4 °F 65.3 °F 30 in SSW 3.6 mph 3.6 mph 60 % 0 in
11:17 81.1 °F 64.6 °F 30 in West 2.3 mph 2.3 mph 57 % 0 in
11:22 81.9 °F 65.1 °F 30 in West 6 mph 6 mph 57 % 0 in
11:27 81.9 °F 65.1 °F 30 in SW 5.8 mph 5.8 mph 57 % 0 in
11:32 82.8 °F 64.9 °F 30 in WSW 4.6 mph 4.6 mph 55 % 0 in
11:37 82.6 °F 64.8 °F 30 in SW 8.1 mph 8.1 mph 55 % 0 in
11:42 82.8 °F 64.4 °F 30 in South 4.6 mph 4.6 mph 54 % 0 in
11:47 83.5 °F 64.6 °F 30 in WSW 3.8 mph 3.8 mph 53 % 0 in
11:52 84 °F 64.6 °F 30 in SW 4.6 mph 4.6 mph 52 % 0 in
11:57 83.8 °F 64.2 °F 30 in SW 4.6 mph 4.6 mph 52 % 0 in
12:02 84.4 °F 63.7 °F 30 in SW 5.8 mph 5.8 mph 50 % 0 in
12:07 84.9 °F 63.7 °F 30 in WSW 8.1 mph 8.1 mph 49 % 0 in
12:12 84.6 °F 62.1 °F 30 in SW 9.2 mph 9.2 mph 47 % 0 in
12:17 84.7 °F 62.2 °F 30 in WSW 6.9 mph 6.9 mph 47 % 0 in
12:22 84.7 °F 61 °F 30 in SW 8.1 mph 8.1 mph 45 % 0 in
12:27 85.3 °F 61.5 °F 30 in SSW 7.4 mph 7.4 mph 45 % 0 in
12:32 86 °F 61 °F 30 in WSW 5.8 mph 5.8 mph 43 % 0 in
12:37 86.7 °F 62.2 °F 30 in SSW 5.8 mph 5.8 mph 44 % 0 in
12:42 87.1 °F 62.4 °F 30 in SSW 5.8 mph 5.8 mph 44 % 0 in
12:47 86.7 °F 62.2 °F 30 in SW 4.6 mph 4.6 mph 44 % 0 in
12:52 87.1 °F 61.9 °F 30 in West 8.1 mph 8.1 mph 43 % 0 in
12:57 87.4 °F 62.2 °F 30 in WNW 6.9 mph 6.9 mph 43 % 0 in
13:02 87.1 °F 61.2 °F 30 in SW 8.7 mph 8.7 mph 42 % 0 in
13:07 87.3 °F 61.3 °F 30 in SW 6.9 mph 6.9 mph 42 % 0 in
13:12 87.4 °F 62.2 °F 30 in SSW 5.8 mph 5.8 mph 43 % 0 in
13:18 88.2 °F 62.2 °F 30 in SW 5.8 mph 5.8 mph 42 % 0 in
13:22 88.3 °F 60.3 °F 30 in SSE 5.8 mph 5.8 mph 39 % 0 in
13:27 88.7 °F 60.6 °F 30 in SE 5.8 mph 5.8 mph 39 % 0 in
13:32 89.8 °F 60.8 °F 30 in East 6.9 mph 6.9 mph 38 % 0 in
13:38 88.7 °F 59.7 °F 30 in SSE 5.8 mph 6.2 mph 38 % 0 in
13:39 89.2 °F 60.3 °F 30 in SSE 4.6 mph 4.6 mph 38 % 0 in
13:44 89.1 °F 59.4 °F 30 in South 8.1 mph 8.1 mph 37 % 0 in
13:49 88.9 °F 59.2 °F 30 in SSW 3.5 mph 4.3 mph 37 % 0 in
13:54 89.2 °F 58.8 °F 30 in SW 7.4 mph 7.4 mph 36 % 0 in
13:59 88.9 °F 57.7 °F 30 in SSW 9.2 mph 9.2 mph 35 % 0 in
14:04 89.1 °F 57.7 °F 30 in SW 5.8 mph 5.8 mph 35 % 0 in
14:09 89.6 °F 58.3 °F 30 in SE 4.6 mph 4.6 mph 35 % 0 in
14:14 90.1 °F 58.8 °F 30 in SSW 10.4 mph 10.4 mph 35 % 0 in
14:19 90 °F 57.7 °F 30 in SW 7.4 mph 7.4 mph 34 % 0 in
14:24 89.1 °F 57 °F 30 in SW 10.4 mph 10.4 mph 34 % 0 in
14:29 89.2 °F 57.2 °F 30 in SW 3.6 mph 3.6 mph 34 % 0 in
14:34 88.3 °F 54.7 °F 30 in SSE 9.2 mph 9.2 mph 32 % 0 in
14:39 90 °F 57 °F 30 in SW 3.8 mph 3.8 mph 33 % 0 in
14:44 90.3 °F 57.4 °F 30 in South 4 mph 4 mph 33 % 0 in
14:49 90.9 °F 56.8 °F 30 in SSE 3.5 mph 3.5 mph 32 % 0 in
14:54 90 °F 56.1 °F 30 in South 5.8 mph 5.8 mph 32 % 0 in
14:59 90 °F 56.1 °F 30 in SSW 8.1 mph 8.1 mph 32 % 0 in
15:04 90.3 °F 56.5 °F 30 in SW 5.8 mph 5.8 mph 32 % 0 in
15:09 90.3 °F 56.5 °F 30 in WSW 4.6 mph 4.6 mph 32 % 0 in
15:14 90.1 °F 56.3 °F 30 in SW 5.8 mph 5.8 mph 32 % 0 in
15:19 90 °F 55.2 °F 30 in South 9.2 mph 9.2 mph 31 % 0 in
15:24 90.7 °F 56.8 °F 30 in West 4.6 mph 4.6 mph 32 % 0 in
15:29 90.3 °F 55.6 °F 30 in WSW 4.6 mph 4.6 mph 31 % 0 in
15:34 91 °F 57 °F 30 in WNW 4.6 mph 4.6 mph 32 % 0 in
15:39 91.4 °F 56.5 °F 30 in South 5.8 mph 5.8 mph 31 % 0 in
15:44 91.2 °F 56.5 °F 30 in SSW 5.8 mph 5.8 mph 31 % 0 in
15:49 91 °F 56.1 °F 30 in SSW 5.8 mph 5.8 mph 31 % 0 in
15:54 90.7 °F 55.9 °F 30 in WSW 8.1 mph 8.1 mph 31 % 0 in
15:59 90.9 °F 55.9 °F 30 in SSW 8.1 mph 8.1 mph 31 % 0 in
16:05 90.1 °F 54.5 °F 30 in SW 5.4 mph 5.4 mph 30 % 0 in
16:10 90.5 °F 55.8 °F 30 in SW 9.2 mph 9.2 mph 31 % 0 in
16:15 91.4 °F 54.7 °F 30 in SSW 10.5 mph 10.5 mph 29 % 0 in
16:20 89.8 °F 54.1 °F 30 in WSW 8.1 mph 8.1 mph 30 % 0 in
16:25 89.2 °F 54.7 °F 30 in WSW 10.4 mph 10.4 mph 31 % 0 in
16:30 89.6 °F 55 °F 30 in SSE 8.1 mph 8.1 mph 31 % 0 in
16:35 89.4 °F 54.9 °F 30 in South 7.1 mph 7.1 mph 31 % 0 in
16:40 88.5 °F 53.1 °F 30 in South 13.8 mph 13.8 mph 30 % 0 in
16:45 88.2 °F 52.9 °F 30 in West 6.9 mph 6.9 mph 30 % 0 in
16:50 89.1 °F 54.5 °F 30 in SW 5.8 mph 5.8 mph 31 % 0 in
16:55 88.9 °F 54.3 °F 30 in SSW 8.1 mph 8.1 mph 31 % 0 in
17:00 88.9 °F 54.3 °F 30 in SW 6 mph 6 mph 31 % 0 in
17:05 88.2 °F 53.8 °F 30 in SW 5.9 mph 5.9 mph 31 % 0 in
17:10 88.3 °F 53.1 °F 30 in SW 6.9 mph 6.9 mph 30 % 0 in
17:15 87.8 °F 53.4 °F 30 in South 6.4 mph 6.4 mph 31 % 0 in
17:20 88.2 °F 53.8 °F 30 in SW 10.4 mph 10.4 mph 31 % 0 in
17:25 87.8 °F 53.4 °F 30 in South 5.8 mph 5.8 mph 31 % 0 in
17:30 88.7 °F 54.1 °F 30 in SSW 4.6 mph 4.6 mph 31 % 0 in
17:35 88.7 °F 54.1 °F 30 in SSW 5.8 mph 5.8 mph 31 % 0 in
17:40 88 °F 53.6 °F 30 in West 5.8 mph 5.8 mph 31 % 0 in
17:45 87.8 °F 53.4 °F 30 in SSW 11.5 mph 11.5 mph 31 % 0 in
17:50 87.1 °F 52.9 °F 30 in SW 8.1 mph 8.1 mph 31 % 0 in
17:52 86.7 °F 52.5 °F 30 in SW 8.1 mph 8.1 mph 31 % 0 in
17:57 86.7 °F 53.2 °F 30 in WSW 6.9 mph 7.1 mph 32 % 0 in
18:02 86.9 °F 53.4 °F 30 in West 5.8 mph 5.8 mph 32 % 0 in
18:07 86.5 °F 52.3 °F 30 in SW 8.1 mph 8.1 mph 31 % 0 in
18:12 86 °F 51.8 °F 30 in SW 9.2 mph 9.2 mph 31 % 0 in
18:17 86 °F 52.7 °F 30 in WSW 7.6 mph 7.6 mph 32 % 0 in
18:22 86.2 °F 52.9 °F 30 in SW 5.9 mph 5.9 mph 32 % 0 in
18:27 85.3 °F 52.2 °F 30 in SW 7.1 mph 7.1 mph 32 % 0 in
18:32 85.8 °F 52.5 °F 30 in SW 4.6 mph 4.6 mph 32 % 0 in
18:37 86 °F 52.7 °F 30 in West 5.8 mph 5.8 mph 32 % 0 in
18:42 86 °F 52.7 °F 30 in WSW 9.2 mph 9.2 mph 32 % 0 in
18:47 85.5 °F 52.2 °F 30 in SW 5.8 mph 5.8 mph 32 % 0 in
18:52 85.3 °F 52.2 °F 30 in West 6.9 mph 6.9 mph 32 % 0 in
18:57 85.1 °F 52 °F 30 in WSW 5.8 mph 5.8 mph 32 % 0 in
19:02 85.1 °F 52 °F 30 in South 4.6 mph 4.6 mph 32 % 0 in
19:07 84.7 °F 51.6 °F 30 in SSW 5.9 mph 5.9 mph 32 % 0 in
19:12 84.6 °F 51.4 °F 30 in WSW 4.9 mph 4.9 mph 32 % 0 in
19:13 84.6 °F 51.4 °F 30 in SSW 4.6 mph 4.6 mph 32 % 0 in
19:18 84 °F 51.1 °F 30 in SW 6.9 mph 6.9 mph 32 % 0 in
19:23 83.7 °F 50.7 °F 30 in SW 5.9 mph 5.9 mph 32 % 0 in
19:28 83.5 °F 51.3 °F 30 in SW 5.8 mph 5.8 mph 33 % 0 in
19:33 83.1 °F 51.1 °F 30 in SW 5.8 mph 5.8 mph 33 % 0 in
19:38 82.9 °F 50 °F 30 in WSW 4.6 mph 4.6 mph 32 % 0 in
19:43 82.6 °F 49.6 °F 30 in SW 9.2 mph 9.2 mph 32 % 0 in
19:48 82.4 °F 50.4 °F 30 in WSW 5.8 mph 5.8 mph 33 % 0 in
19:53 81.9 °F 49.8 °F 30 in SSW 5.8 mph 5.8 mph 33 % 0 in
19:58 81.7 °F 49.8 °F 30 in SW 5.8 mph 5.8 mph 33 % 0 in
20:03 81.5 °F 50.4 °F 30 in WSW 4.6 mph 4.6 mph 34 % 0 in
20:08 81.1 °F 50.2 °F 30 in SW 4.6 mph 4.6 mph 34 % 0 in
20:13 81 °F 50.7 °F 30 in West 3.5 mph 3.5 mph 35 % 0 in
20:18 80.6 °F 50.4 °F 30 in SW 4.6 mph 4.6 mph 35 % 0 in
20:20 80.6 °F 50.4 °F 30 in WSW 5.8 mph 5.8 mph 35 % 0 in
20:25 80.2 °F 50.9 °F 30 in SW 4.6 mph 4.6 mph 36 % 0 in
20:30 80.1 °F 50.7 °F 30 in SW 2.6 mph 2.6 mph 36 % 0 in
20:35 79.7 °F 51.1 °F 30 in WSW 3.5 mph 3.5 mph 37 % 0 in
20:40 79.3 °F 50.7 °F 30 in SW 2.4 mph 2.4 mph 37 % 0 in
20:45 79 °F 50.5 °F 30 in SW 2.4 mph 2.4 mph 37 % 0 in
20:50 78.6 °F 50.9 °F 30 in West 3.5 mph 3.5 mph 38 % 0 in
20:55 78.3 °F 50.5 °F 30 in WSW 2.3 mph 2.3 mph 38 % 0 in
21:00 77.9 °F 50.2 °F 30 in WSW 2.4 mph 2.4 mph 38 % 0 in
21:05 77.7 °F 50.7 °F 30 in SW 2.3 mph 2.3 mph 39 % 0 in
21:10 77.4 °F 50.5 °F 30 in WSW 2.3 mph 2.3 mph 39 % 0 in
21:15 77.2 °F 50.4 °F 30 in WSW 2.3 mph 2.3 mph 39 % 0 in
21:20 76.8 °F 51.3 °F 30 in SW 2.3 mph 2.3 mph 41 % 0 in
21:25 76.6 °F 51.3 °F 30 in Calm     41 % 0 in
21:30 76.3 °F 51.4 °F 30 in ENE 2.3 mph 2.3 mph 42 % 0 in
21:35 76.3 °F 51.4 °F 30 in ENE 1.2 mph 1.2 mph 42 % 0 in
21:40 76.1 °F 51.3 °F 30 in Calm     42 % 0 in
21:45 75.9 °F 51.8 °F 30 in ENE 1.2 mph   43 % 0 in
21:50 75.9 °F 51.8 °F 30 in Calm     43 % 0 in
21:55 76.1 °F 52 °F 30 in Calm     43 % 0 in
22:00 75.9 °F 52.3 °F 30 in East 2.4 mph 2.4 mph 44 % 0 in
22:05 75.6 °F 52.7 °F 30 in NE 2.4 mph 2.4 mph 45 % 0 in
22:10 75.2 °F 53.1 °F 30 in ENE 1.2 mph 1.2 mph 46 % 0 in
22:15 75.2 °F 53.6 °F 30.1 in NNE 1.4 mph 1.4 mph 47 % 0 in
22:20 75 °F 54 °F 30.1 in Calm     48 % 0 in
22:25 74.8 °F 54.3 °F 30.1 in NNE 1.2 mph   49 % 0 in
22:30 74.7 °F 54.9 °F 30 in NNE 1.2 mph   50 % 0 in
22:35 74.5 °F 55.2 °F 30 in NNE 1.2 mph   51 % 0 in
22:40 74.3 °F 55.6 °F 30 in North 1.2 mph   52 % 0 in
22:45 74.1 °F 55.4 °F 30.1 in NNE 2.3 mph 2.3 mph 52 % 0 in
22:50 73.8 °F 55.6 °F 30.1 in Calm     53 % 0 in
22:55 73.6 °F 55.9 °F 30.1 in Calm     54 % 0 in
23:00 73.4 °F 56.1 °F 30.1 in NNE 1.2 mph   55 % 0 in
23:05 73.2 °F 56.1 °F 30.1 in NW 1.2 mph 1.2 mph 55 % 0 in
23:10 73 °F 55.9 °F 30.1 in NNW 1.2 mph   55 % 0 in
23:15 73 °F 56.5 °F 30.1 in Calm     56 % 0 in
23:20 72.9 °F 56.1 °F 30.1 in Calm     56 % 0 in
23:25 72.7 °F 56.7 °F 30.1 in North 1.2 mph   57 % 0 in
23:30 72.5 °F 56.5 °F 30.1 in Calm     57 % 0 in
23:35 72.5 °F 56.8 °F 30.1 in NE 2.3 mph 2.3 mph 58 % 0 in
23:40 72.3 °F 56.7 °F 30.1 in NE 1.2 mph 1.2 mph 58 % 0 in
23:45 72.1 °F 57 °F 30.1 in Calm     59 % 0 in
23:50 72.1 °F 57 °F 30.1 in NNE 2.4 mph 2.4 mph 59 % 0 in
23:55 72 °F 56.8 °F 30.1 in NNE 2.3 mph 2.3 mph 59 % 0 in
Meteo Sesrovires
Elogis d' Weather Underground - 3.5 mb

Guio original per  Jim McMurry - jmcmurry@mwt.net Adaptat per a la plantilla per  Wim van der Kuil - Leuven-Template.eu

Trobareu la nostra informacio del temps tambe a:

Weather Underground

AWEKAS